sensor_id;sensor_type;location;lat;lon;timestamp;temperature;humidity
80258;DHT22;69565;37.974;23.708;2023-10-19T00:01:14;24.30;47.40
80258;DHT22;69565;37.974;23.708;2023-10-19T00:03:41;24.20;47.30
80258;DHT22;69565;37.974;23.708;2023-10-19T00:06:10;24.20;47.30
80258;DHT22;69565;37.974;23.708;2023-10-19T00:08:37;24.20;47.30
80258;DHT22;69565;37.974;23.708;2023-10-19T00:11:07;24.20;47.30
80258;DHT22;69565;37.974;23.708;2023-10-19T00:13:35;24.20;47.30
80258;DHT22;69565;37.974;23.708;2023-10-19T00:16:04;24.30;47.40
80258;DHT22;69565;37.974;23.708;2023-10-19T00:18:37;24.30;47.30
80258;DHT22;69565;37.974;23.708;2023-10-19T00:21:07;24.20;47.40
80258;DHT22;69565;37.974;23.708;2023-10-19T00:23:54;24.20;47.40
80258;DHT22;69565;37.974;23.708;2023-10-19T00:26:24;24.20;47.40
80258;DHT22;69565;37.974;23.708;2023-10-19T00:28:55;24.20;47.40
80258;DHT22;69565;37.974;23.708;2023-10-19T00:31:22;24.20;47.40
80258;DHT22;69565;37.974;23.708;2023-10-19T00:33:49;24.20;47.40
80258;DHT22;69565;37.974;23.708;2023-10-19T00:36:20;24.20;47.40
80258;DHT22;69565;37.974;23.708;2023-10-19T00:38:46;24.20;47.30
80258;DHT22;69565;37.974;23.708;2023-10-19T00:41:24;24.20;47.40
80258;DHT22;69565;37.974;23.708;2023-10-19T00:43:54;24.20;47.40
80258;DHT22;69565;37.974;23.708;2023-10-19T00:46:29;24.20;47.40
80258;DHT22;69565;37.974;23.708;2023-10-19T00:49:01;24.20;47.40
80258;DHT22;69565;37.974;23.708;2023-10-19T00:51:31;24.20;47.40
80258;DHT22;69565;37.974;23.708;2023-10-19T00:54:05;24.20;47.40
80258;DHT22;69565;37.974;23.708;2023-10-19T00:56:46;24.20;47.50
80258;DHT22;69565;37.974;23.708;2023-10-19T00:59:20;24.20;47.40
80258;DHT22;69565;37.974;23.708;2023-10-19T01:01:51;24.20;47.40
80258;DHT22;69565;37.974;23.708;2023-10-19T01:04:19;24.20;47.40
80258;DHT22;69565;37.974;23.708;2023-10-19T01:06:49;24.20;47.40
80258;DHT22;69565;37.974;23.708;2023-10-19T01:09:35;24.20;47.40
80258;DHT22;69565;37.974;23.708;2023-10-19T01:12:02;24.20;47.40
80258;DHT22;69565;37.974;23.708;2023-10-19T01:15:10;24.20;47.50
80258;DHT22;69565;37.974;23.708;2023-10-19T01:17:47;24.20;47.50
80258;DHT22;69565;37.974;23.708;2023-10-19T01:20:18;24.20;47.50
80258;DHT22;69565;37.974;23.708;2023-10-19T01:22:52;24.20;47.50
80258;DHT22;69565;37.974;23.708;2023-10-19T01:28:10;24.10;47.40
80258;DHT22;69565;37.974;23.708;2023-10-19T01:30:38;24.10;47.50
80258;DHT22;69565;37.974;23.708;2023-10-19T01:33:04;24.10;47.60
80258;DHT22;69565;37.974;23.708;2023-10-19T01:35:38;24.10;47.50
80258;DHT22;69565;37.974;23.708;2023-10-19T01:38:23;24.10;47.50
80258;DHT22;69565;37.974;23.708;2023-10-19T01:40:49;24.10;47.60
80258;DHT22;69565;37.974;23.708;2023-10-19T01:43:17;24.10;47.50
80258;DHT22;69565;37.974;23.708;2023-10-19T01:45:47;24.10;47.50
80258;DHT22;69565;37.974;23.708;2023-10-19T01:48:13;24.10;47.50
80258;DHT22;69565;37.974;23.708;2023-10-19T01:50:41;24.10;47.60
80258;DHT22;69565;37.974;23.708;2023-10-19T01:53:07;24.10;47.60
80258;DHT22;69565;37.974;23.708;2023-10-19T01:55:43;24.10;47.60
80258;DHT22;69565;37.974;23.708;2023-10-19T01:58:09;24.10;47.50
80258;DHT22;69565;37.974;23.708;2023-10-19T02:00:36;24.10;47.60
80258;DHT22;69565;37.974;23.708;2023-10-19T02:03:08;24.10;47.60
80258;DHT22;69565;37.974;23.708;2023-10-19T02:05:34;24.10;47.60
80258;DHT22;69565;37.974;23.708;2023-10-19T02:08:06;24.10;47.60
80258;DHT22;69565;37.974;23.708;2023-10-19T02:10:35;24.10;47.60
80258;DHT22;69565;37.974;23.708;2023-10-19T02:13:03;24.10;47.60
80258;DHT22;69565;37.974;23.708;2023-10-19T02:15:33;24.10;47.60
80258;DHT22;69565;37.974;23.708;2023-10-19T02:18:04;24.10;47.60
80258;DHT22;69565;37.974;23.708;2023-10-19T02:20:30;24.10;47.60
80258;DHT22;69565;37.974;23.708;2023-10-19T02:22:57;24.10;47.60
80258;DHT22;69565;37.974;23.708;2023-10-19T02:25:24;24.10;47.60
80258;DHT22;69565;37.974;23.708;2023-10-19T02:28:04;24.10;47.50
80258;DHT22;69565;37.974;23.708;2023-10-19T02:30:32;24.10;47.60
80258;DHT22;69565;37.974;23.708;2023-10-19T02:32:59;24.10;47.60
80258;DHT22;69565;37.974;23.708;2023-10-19T02:35:26;24.10;47.60
80258;DHT22;69565;37.974;23.708;2023-10-19T02:37:53;24.10;47.60
80258;DHT22;69565;37.974;23.708;2023-10-19T02:40:20;24.10;47.60
80258;DHT22;69565;37.974;23.708;2023-10-19T02:42:48;24.10;47.60
80258;DHT22;69565;37.974;23.708;2023-10-19T02:45:17;24.10;47.60
80258;DHT22;69565;37.974;23.708;2023-10-19T02:47:44;24.10;47.60
80258;DHT22;69565;37.974;23.708;2023-10-19T02:50:10;24.10;47.60
80258;DHT22;69565;37.974;23.708;2023-10-19T02:52:42;24.10;47.60
80258;DHT22;69565;37.974;23.708;2023-10-19T02:55:09;24.10;47.60
80258;DHT22;69565;37.974;23.708;2023-10-19T02:57:37;24.10;47.70
80258;DHT22;69565;37.974;23.708;2023-10-19T03:00:07;24.10;47.70
80258;DHT22;69565;37.974;23.708;2023-10-19T03:02:46;24.10;47.70
80258;DHT22;69565;37.974;23.708;2023-10-19T03:05:12;24.10;47.70
80258;DHT22;69565;37.974;23.708;2023-10-19T03:07:44;24.10;48.70
80258;DHT22;69565;37.974;23.708;2023-10-19T03:10:10;24.10;47.70
80258;DHT22;69565;37.974;23.708;2023-10-19T03:12:56;24.10;47.60
80258;DHT22;69565;37.974;23.708;2023-10-19T03:15:22;24.10;47.60
80258;DHT22;69565;37.974;23.708;2023-10-19T03:17:49;24.10;47.60
80258;DHT22;69565;37.974;23.708;2023-10-19T03:20:15;24.10;47.60
80258;DHT22;69565;37.974;23.708;2023-10-19T03:22:42;24.10;47.60
80258;DHT22;69565;37.974;23.708;2023-10-19T03:25:09;24.10;47.60
80258;DHT22;69565;37.974;23.708;2023-10-19T03:28:01;24.10;47.60
80258;DHT22;69565;37.974;23.708;2023-10-19T03:30:37;24.10;47.60
80258;DHT22;69565;37.974;23.708;2023-10-19T03:33:07;24.10;47.60
80258;DHT22;69565;37.974;23.708;2023-10-19T03:35:37;24.10;47.60
80258;DHT22;69565;37.974;23.708;2023-10-19T03:38:04;24.10;47.60
80258;DHT22;69565;37.974;23.708;2023-10-19T03:40:42;24.10;47.60
80258;DHT22;69565;37.974;23.708;2023-10-19T03:43:17;24.10;47.60
80258;DHT22;69565;37.974;23.708;2023-10-19T03:45:44;24.10;47.60
80258;DHT22;69565;37.974;23.708;2023-10-19T03:48:18;24.10;47.60
80258;DHT22;69565;37.974;23.708;2023-10-19T03:50:44;24.10;47.60
80258;DHT22;69565;37.974;23.708;2023-10-19T03:53:09;24.10;47.70
80258;DHT22;69565;37.974;23.708;2023-10-19T03:55:38;24.10;47.60
80258;DHT22;69565;37.974;23.708;2023-10-19T03:58:04;24.10;47.70
80258;DHT22;69565;37.974;23.708;2023-10-19T04:00:30;24.10;47.60
80258;DHT22;69565;37.974;23.708;2023-10-19T04:02:59;24.20;47.60
80258;DHT22;69565;37.974;23.708;2023-10-19T04:05:25;24.10;47.60
80258;DHT22;69565;37.974;23.708;2023-10-19T04:07:52;24.10;47.50
80258;DHT22;69565;37.974;23.708;2023-10-19T04:10:25;24.10;47.60
80258;DHT22;69565;37.974;23.708;2023-10-19T04:13:04;24.10;47.60
80258;DHT22;69565;37.974;23.708;2023-10-19T04:15:35;24.10;47.60
80258;DHT22;69565;37.974;23.708;2023-10-19T04:18:02;24.10;47.50
80258;DHT22;69565;37.974;23.708;2023-10-19T04:20:34;24.10;47.60
80258;DHT22;69565;37.974;23.708;2023-10-19T04:23:21;24.10;47.60
80258;DHT22;69565;37.974;23.708;2023-10-19T04:25:47;24.10;47.60
80258;DHT22;69565;37.974;23.708;2023-10-19T04:28:13;24.10;47.60
80258;DHT22;69565;37.974;23.708;2023-10-19T04:30:40;24.10;47.80
80258;DHT22;69565;37.974;23.708;2023-10-19T04:33:05;24.10;48.00
80258;DHT22;69565;37.974;23.708;2023-10-19T04:35:37;24.10;48.30
80258;DHT22;69565;37.974;23.708;2023-10-19T04:38:04;24.10;48.60
80258;DHT22;69565;37.974;23.708;2023-10-19T04:40:33;24.10;48.80
80258;DHT22;69565;37.974;23.708;2023-10-19T04:43:02;24.10;48.90
80258;DHT22;69565;37.974;23.708;2023-10-19T04:45:30;24.10;48.90
80258;DHT22;69565;37.974;23.708;2023-10-19T04:47:56;24.10;48.90
80258;DHT22;69565;37.974;23.708;2023-10-19T04:50:23;24.10;49.00
80258;DHT22;69565;37.974;23.708;2023-10-19T04:52:48;24.10;48.90
80258;DHT22;69565;37.974;23.708;2023-10-19T04:55:14;24.10;48.90
80258;DHT22;69565;37.974;23.708;2023-10-19T04:57:40;24.10;48.60
80258;DHT22;69565;37.974;23.708;2023-10-19T05:00:06;24.10;48.40
80258;DHT22;69565;37.974;23.708;2023-10-19T05:02:33;24.10;48.30
80258;DHT22;69565;37.974;23.708;2023-10-19T05:04:59;24.10;48.00
80258;DHT22;69565;37.974;23.708;2023-10-19T05:07:24;24.10;47.80
80258;DHT22;69565;37.974;23.708;2023-10-19T05:09:52;24.10;47.60
80258;DHT22;69565;37.974;23.708;2023-10-19T05:12:19;24.10;47.40
80258;DHT22;69565;37.974;23.708;2023-10-19T05:14:45;24.10;47.20
80258;DHT22;69565;37.974;23.708;2023-10-19T05:17:11;24.10;47.10
80258;DHT22;69565;37.974;23.708;2023-10-19T05:19:38;24.10;46.90
80258;DHT22;69565;37.974;23.708;2023-10-19T05:22:09;24.10;46.80
80258;DHT22;69565;37.974;23.708;2023-10-19T05:24:35;24.20;46.80
80258;DHT22;69565;37.974;23.708;2023-10-19T05:27:01;24.20;46.70
80258;DHT22;69565;37.974;23.708;2023-10-19T05:29:28;24.20;46.50
80258;DHT22;69565;37.974;23.708;2023-10-19T05:31:56;24.20;46.50
80258;DHT22;69565;37.974;23.708;2023-10-19T05:34:26;24.20;46.40
80258;DHT22;69565;37.974;23.708;2023-10-19T05:36:52;24.20;46.40
80258;DHT22;69565;37.974;23.708;2023-10-19T05:39:19;24.10;46.40
80258;DHT22;69565;37.974;23.708;2023-10-19T05:41:56;24.10;46.40
80258;DHT22;69565;37.974;23.708;2023-10-19T05:44:23;24.10;46.50
80258;DHT22;69565;37.974;23.708;2023-10-19T05:46:50;24.20;46.40
80258;DHT22;69565;37.974;23.708;2023-10-19T05:49:16;24.20;46.30
80258;DHT22;69565;37.974;23.708;2023-10-19T05:51:43;24.20;46.20
80258;DHT22;69565;37.974;23.708;2023-10-19T05:54:10;24.20;46.20
80258;DHT22;69565;37.974;23.708;2023-10-19T05:56:36;24.20;46.20
80258;DHT22;69565;37.974;23.708;2023-10-19T05:59:02;24.30;46.20
80258;DHT22;69565;37.974;23.708;2023-10-19T06:01:28;24.20;46.10
80258;DHT22;69565;37.974;23.708;2023-10-19T06:03:54;24.30;46.20
80258;DHT22;69565;37.974;23.708;2023-10-19T06:06:20;24.20;46.10
80258;DHT22;69565;37.974;23.708;2023-10-19T06:08:46;24.20;46.10
80258;DHT22;69565;37.974;23.708;2023-10-19T06:11:12;24.20;46.10
80258;DHT22;69565;37.974;23.708;2023-10-19T06:13:38;24.20;46.10
80258;DHT22;69565;37.974;23.708;2023-10-19T06:16:04;24.20;46.20
80258;DHT22;69565;37.974;23.708;2023-10-19T06:18:30;24.20;46.20
80258;DHT22;69565;37.974;23.708;2023-10-19T06:20:57;24.20;46.20
80258;DHT22;69565;37.974;23.708;2023-10-19T06:23:22;24.30;46.30
80258;DHT22;69565;37.974;23.708;2023-10-19T06:25:48;24.30;46.30
80258;DHT22;69565;37.974;23.708;2023-10-19T06:28:16;24.30;46.20
80258;DHT22;69565;37.974;23.708;2023-10-19T06:30:41;24.30;46.20
80258;DHT22;69565;37.974;23.708;2023-10-19T06:33:08;24.30;46.10
80258;DHT22;69565;37.974;23.708;2023-10-19T06:35:34;24.40;46.10
80258;DHT22;69565;37.974;23.708;2023-10-19T06:38:03;24.40;46.00
80258;DHT22;69565;37.974;23.708;2023-10-19T06:40:30;24.40;46.00
80258;DHT22;69565;37.974;23.708;2023-10-19T06:42:57;24.40;45.90
80258;DHT22;69565;37.974;23.708;2023-10-19T06:45:24;24.40;45.80
80258;DHT22;69565;37.974;23.708;2023-10-19T06:47:51;24.40;45.70
80258;DHT22;69565;37.974;23.708;2023-10-19T06:50:21;24.50;45.70
80258;DHT22;69565;37.974;23.708;2023-10-19T06:52:48;24.40;45.60
80258;DHT22;69565;37.974;23.708;2023-10-19T06:55:18;24.50;45.50
80258;DHT22;69565;37.974;23.708;2023-10-19T06:57:47;24.50;45.40
80258;DHT22;69565;37.974;23.708;2023-10-19T07:00:17;24.50;45.20
80258;DHT22;69565;37.974;23.708;2023-10-19T07:02:54;24.50;45.10
80258;DHT22;69565;37.974;23.708;2023-10-19T07:05:21;24.60;45.00
80258;DHT22;69565;37.974;23.708;2023-10-19T07:07:48;24.60;44.90
80258;DHT22;69565;37.974;23.708;2023-10-19T07:10:16;24.60;44.80
80258;DHT22;69565;37.974;23.708;2023-10-19T07:12:44;24.60;44.70
80258;DHT22;69565;37.974;23.708;2023-10-19T07:15:12;24.60;44.60
80258;DHT22;69565;37.974;23.708;2023-10-19T07:17:43;24.60;44.60
80258;DHT22;69565;37.974;23.708;2023-10-19T07:20:10;24.60;44.60
80258;DHT22;69565;37.974;23.708;2023-10-19T07:23:00;24.60;44.60
80258;DHT22;69565;37.974;23.708;2023-10-19T07:25:34;24.70;44.60
80258;DHT22;69565;37.974;23.708;2023-10-19T07:28:09;24.70;44.60
80258;DHT22;69565;37.974;23.708;2023-10-19T07:30:34;24.80;44.50
80258;DHT22;69565;37.974;23.708;2023-10-19T07:33:00;24.80;44.50
80258;DHT22;69565;37.974;23.708;2023-10-19T07:35:34;24.80;44.40
80258;DHT22;69565;37.974;23.708;2023-10-19T07:38:00;24.80;44.50
80258;DHT22;69565;37.974;23.708;2023-10-19T07:40:27;24.80;44.40
80258;DHT22;69565;37.974;23.708;2023-10-19T07:42:53;24.80;44.40
80258;DHT22;69565;37.974;23.708;2023-10-19T07:45:20;24.80;44.30
80258;DHT22;69565;37.974;23.708;2023-10-19T07:47:47;24.80;44.40
80258;DHT22;69565;37.974;23.708;2023-10-19T07:50:13;24.80;44.20
80258;DHT22;69565;37.974;23.708;2023-10-19T07:52:50;24.80;44.20
80258;DHT22;69565;37.974;23.708;2023-10-19T07:55:18;24.80;44.40
80258;DHT22;69565;37.974;23.708;2023-10-19T07:57:44;24.80;44.60
80258;DHT22;69565;37.974;23.708;2023-10-19T08:00:12;24.80;44.60
80258;DHT22;69565;37.974;23.708;2023-10-19T08:02:40;24.90;44.60
80258;DHT22;69565;37.974;23.708;2023-10-19T08:05:16;24.90;44.50
80258;DHT22;69565;37.974;23.708;2023-10-19T08:07:44;24.90;44.30
80258;DHT22;69565;37.974;23.708;2023-10-19T08:10:11;25.00;44.30
80258;DHT22;69565;37.974;23.708;2023-10-19T08:12:42;25.00;44.20
80258;DHT22;69565;37.974;23.708;2023-10-19T08:15:11;25.00;44.10
80258;DHT22;69565;37.974;23.708;2023-10-19T08:17:38;25.00;44.20
80258;DHT22;69565;37.974;23.708;2023-10-19T08:20:09;25.00;44.10
80258;DHT22;69565;37.974;23.708;2023-10-19T08:22:36;25.00;44.90
80258;DHT22;69565;37.974;23.708;2023-10-19T08:25:03;25.00;44.10
80258;DHT22;69565;37.974;23.708;2023-10-19T08:27:30;25.00;44.20
80258;DHT22;69565;37.974;23.708;2023-10-19T08:29:57;25.00;44.20
80258;DHT22;69565;37.974;23.708;2023-10-19T08:32:23;25.00;44.20
80258;DHT22;69565;37.974;23.708;2023-10-19T08:34:48;25.00;44.20
80258;DHT22;69565;37.974;23.708;2023-10-19T08:37:14;25.10;44.20
80258;DHT22;69565;37.974;23.708;2023-10-19T08:39:40;25.10;44.20
80258;DHT22;69565;37.974;23.708;2023-10-19T08:42:06;25.10;44.20
80258;DHT22;69565;37.974;23.708;2023-10-19T08:44:34;25.10;44.10
80258;DHT22;69565;37.974;23.708;2023-10-19T08:47:01;25.10;44.10
80258;DHT22;69565;37.974;23.708;2023-10-19T08:49:27;25.10;44.10
80258;DHT22;69565;37.974;23.708;2023-10-19T08:51:54;25.10;44.20
80258;DHT22;69565;37.974;23.708;2023-10-19T08:54:20;25.10;44.40
80258;DHT22;69565;37.974;23.708;2023-10-19T08:56:46;25.10;44.20
80258;DHT22;69565;37.974;23.708;2023-10-19T08:59:13;25.10;44.20
80258;DHT22;69565;37.974;23.708;2023-10-19T09:01:41;25.10;44.20
80258;DHT22;69565;37.974;23.708;2023-10-19T09:04:11;25.20;44.30
80258;DHT22;69565;37.974;23.708;2023-10-19T09:06:39;25.10;44.30
80258;DHT22;69565;37.974;23.708;2023-10-19T09:09:13;25.20;44.40
80258;DHT22;69565;37.974;23.708;2023-10-19T09:11:48;25.20;44.40
80258;DHT22;69565;37.974;23.708;2023-10-19T09:14:17;25.20;44.40
80258;DHT22;69565;37.974;23.708;2023-10-19T09:16:59;25.20;44.30
80258;DHT22;69565;37.974;23.708;2023-10-19T09:19:39;25.20;44.30
80258;DHT22;69565;37.974;23.708;2023-10-19T09:22:06;25.30;44.40
80258;DHT22;69565;37.974;23.708;2023-10-19T09:24:48;25.20;44.40
80258;DHT22;69565;37.974;23.708;2023-10-19T09:27:17;25.20;44.40
80258;DHT22;69565;37.974;23.708;2023-10-19T09:29:43;25.30;44.40
80258;DHT22;69565;37.974;23.708;2023-10-19T09:32:09;25.30;44.40
80258;DHT22;69565;37.974;23.708;2023-10-19T09:34:36;25.30;44.50
80258;DHT22;69565;37.974;23.708;2023-10-19T09:37:03;25.30;44.50
80258;DHT22;69565;37.974;23.708;2023-10-19T09:39:32;25.30;44.50
80258;DHT22;69565;37.974;23.708;2023-10-19T09:42:10;25.20;44.60
80258;DHT22;69565;37.974;23.708;2023-10-19T09:44:48;25.30;44.70
80258;DHT22;69565;37.974;23.708;2023-10-19T09:47:35;25.30;44.80
80258;DHT22;69565;37.974;23.708;2023-10-19T09:50:05;25.30;44.80
80258;DHT22;69565;37.974;23.708;2023-10-19T09:52:32;25.30;44.90
80258;DHT22;69565;37.974;23.708;2023-10-19T09:55:22;25.30;45.00
80258;DHT22;69565;37.974;23.708;2023-10-19T10:00:17;25.30;44.80
80258;DHT22;69565;37.974;23.708;2023-10-19T10:02:50;25.30;44.80
80258;DHT22;69565;37.974;23.708;2023-10-19T10:10:48;25.30;44.60
80258;DHT22;69565;37.974;23.708;2023-10-19T10:15:54;25.30;44.50
80258;DHT22;69565;37.974;23.708;2023-10-19T10:18:23;25.30;44.50
80258;DHT22;69565;37.974;23.708;2023-10-19T10:21:11;25.40;44.40
80258;DHT22;69565;37.974;23.708;2023-10-19T10:26:18;25.30;44.40
80258;DHT22;69565;37.974;23.708;2023-10-19T10:28:49;25.30;44.30
80258;DHT22;69565;37.974;23.708;2023-10-19T10:31:35;25.30;44.40
80258;DHT22;69565;37.974;23.708;2023-10-19T10:34:02;25.30;44.40
80258;DHT22;69565;37.974;23.708;2023-10-19T10:36:57;25.40;44.50
80258;DHT22;69565;37.974;23.708;2023-10-19T10:39:25;25.40;44.70
80258;DHT22;69565;37.974;23.708;2023-10-19T10:41:58;25.30;44.80
80258;DHT22;69565;37.974;23.708;2023-10-19T10:44:45;25.30;45.00
80258;DHT22;69565;37.974;23.708;2023-10-19T10:49:57;25.30;45.10
80258;DHT22;69565;37.974;23.708;2023-10-19T10:52:31;25.40;45.20
80258;DHT22;69565;37.974;23.708;2023-10-19T10:54:58;25.40;45.30
80258;DHT22;69565;37.974;23.708;2023-10-19T10:57:34;25.40;45.30
80258;DHT22;69565;37.974;23.708;2023-10-19T11:02:30;25.40;45.30
80258;DHT22;69565;37.974;23.708;2023-10-19T11:04:56;25.40;45.20
80258;DHT22;69565;37.974;23.708;2023-10-19T11:07:21;25.40;45.10
80258;DHT22;69565;37.974;23.708;2023-10-19T11:09:48;25.40;45.20
80258;DHT22;69565;37.974;23.708;2023-10-19T11:12:15;25.40;45.00
80258;DHT22;69565;37.974;23.708;2023-10-19T11:14:58;25.40;45.10
80258;DHT22;69565;37.974;23.708;2023-10-19T11:17:42;25.40;45.00
80258;DHT22;69565;37.974;23.708;2023-10-19T11:20:09;25.40;45.00
80258;DHT22;69565;37.974;23.708;2023-10-19T11:22:51;25.40;45.00
80258;DHT22;69565;37.974;23.708;2023-10-19T11:25:22;25.40;45.10
80258;DHT22;69565;37.974;23.708;2023-10-19T11:27:48;25.40;45.10
80258;DHT22;69565;37.974;23.708;2023-10-19T11:30:27;25.40;45.20
80258;DHT22;69565;37.974;23.708;2023-10-19T11:32:53;25.40;45.20
80258;DHT22;69565;37.974;23.708;2023-10-19T11:35:23;25.40;45.50
80258;DHT22;69565;37.974;23.708;2023-10-19T11:37:51;25.40;45.30
80258;DHT22;69565;37.974;23.708;2023-10-19T11:40:19;25.40;45.30
80258;DHT22;69565;37.974;23.708;2023-10-19T11:42:45;25.40;45.30
80258;DHT22;69565;37.974;23.708;2023-10-19T11:45:11;25.40;45.40
80258;DHT22;69565;37.974;23.708;2023-10-19T11:47:37;25.40;45.40
80258;DHT22;69565;37.974;23.708;2023-10-19T11:50:04;25.40;45.40
80258;DHT22;69565;37.974;23.708;2023-10-19T11:52:30;25.50;46.50
80258;DHT22;69565;37.974;23.708;2023-10-19T11:54:56;25.50;45.50
80258;DHT22;69565;37.974;23.708;2023-10-19T11:57:23;25.50;45.50
80258;DHT22;69565;37.974;23.708;2023-10-19T11:59:49;25.50;45.80
80258;DHT22;69565;37.974;23.708;2023-10-19T12:02:18;25.50;45.70
80258;DHT22;69565;37.974;23.708;2023-10-19T12:04:45;25.50;45.80
80258;DHT22;69565;37.974;23.708;2023-10-19T12:07:11;25.40;45.80
80258;DHT22;69565;37.974;23.708;2023-10-19T12:09:37;25.50;46.00
80258;DHT22;69565;37.974;23.708;2023-10-19T12:12:03;25.40;46.10
80258;DHT22;69565;37.974;23.708;2023-10-19T12:14:32;25.40;46.20
80258;DHT22;69565;37.974;23.708;2023-10-19T12:17:00;25.40;46.30
80258;DHT22;69565;37.974;23.708;2023-10-19T12:19:29;25.40;46.30
80258;DHT22;69565;37.974;23.708;2023-10-19T12:21:56;25.40;46.30
80258;DHT22;69565;37.974;23.708;2023-10-19T12:24:22;25.40;46.30
80258;DHT22;69565;37.974;23.708;2023-10-19T12:26:48;25.40;46.30
80258;DHT22;69565;37.974;23.708;2023-10-19T12:29:14;25.50;46.40
80258;DHT22;69565;37.974;23.708;2023-10-19T12:31:42;25.50;46.40
80258;DHT22;69565;37.974;23.708;2023-10-19T12:34:09;25.50;46.40
80258;DHT22;69565;37.974;23.708;2023-10-19T12:36:37;25.50;46.40
80258;DHT22;69565;37.974;23.708;2023-10-19T12:39:03;25.50;46.50
80258;DHT22;69565;37.974;23.708;2023-10-19T12:41:32;25.50;46.60
80258;DHT22;69565;37.974;23.708;2023-10-19T12:43:58;25.50;46.60
80258;DHT22;69565;37.974;23.708;2023-10-19T12:46:26;25.50;46.60
80258;DHT22;69565;37.974;23.708;2023-10-19T12:48:56;25.50;46.70
80258;DHT22;69565;37.974;23.708;2023-10-19T12:51:25;25.50;46.60
80258;DHT22;69565;37.974;23.708;2023-10-19T12:53:54;25.50;46.60
80258;DHT22;69565;37.974;23.708;2023-10-19T12:56:20;25.50;46.50
80258;DHT22;69565;37.974;23.708;2023-10-19T12:58:46;25.50;46.50
80258;DHT22;69565;37.974;23.708;2023-10-19T13:01:14;25.50;46.50
80258;DHT22;69565;37.974;23.708;2023-10-19T13:03:45;25.50;46.60
80258;DHT22;69565;37.974;23.708;2023-10-19T13:06:14;25.50;46.50
80258;DHT22;69565;37.974;23.708;2023-10-19T13:08:39;25.50;46.50
80258;DHT22;69565;37.974;23.708;2023-10-19T13:11:06;25.40;46.50
80258;DHT22;69565;37.974;23.708;2023-10-19T13:13:33;25.40;46.50
80258;DHT22;69565;37.974;23.708;2023-10-19T13:16:01;25.40;46.50
80258;DHT22;69565;37.974;23.708;2023-10-19T13:18:31;25.40;46.60
80258;DHT22;69565;37.974;23.708;2023-10-19T13:20:59;25.40;46.60
80258;DHT22;69565;37.974;23.708;2023-10-19T13:23:33;25.40;46.60
80258;DHT22;69565;37.974;23.708;2023-10-19T13:25:59;25.40;46.60
80258;DHT22;69565;37.974;23.708;2023-10-19T13:28:42;25.40;46.60
80258;DHT22;69565;37.974;23.708;2023-10-19T13:31:08;25.40;46.60
80258;DHT22;69565;37.974;23.708;2023-10-19T13:33:41;25.40;46.70
80258;DHT22;69565;37.974;23.708;2023-10-19T13:36:07;25.40;46.80
80258;DHT22;69565;37.974;23.708;2023-10-19T13:38:33;25.40;46.80
80258;DHT22;69565;37.974;23.708;2023-10-19T13:41:02;25.40;46.90
80258;DHT22;69565;37.974;23.708;2023-10-19T13:43:27;25.40;46.90
80258;DHT22;69565;37.974;23.708;2023-10-19T13:45:53;25.40;46.90
80258;DHT22;69565;37.974;23.708;2023-10-19T13:48:20;25.40;47.00
80258;DHT22;69565;37.974;23.708;2023-10-19T13:50:47;25.40;47.00
80258;DHT22;69565;37.974;23.708;2023-10-19T13:53:19;25.30;46.90
80258;DHT22;69565;37.974;23.708;2023-10-19T13:55:45;25.40;47.00
80258;DHT22;69565;37.974;23.708;2023-10-19T13:58:11;25.40;47.10
80258;DHT22;69565;37.974;23.708;2023-10-19T14:00:40;25.40;47.20
80258;DHT22;69565;37.974;23.708;2023-10-19T14:03:07;25.30;47.20
80258;DHT22;69565;37.974;23.708;2023-10-19T14:05:43;25.30;47.20
80258;DHT22;69565;37.974;23.708;2023-10-19T14:08:13;25.30;47.20
80258;DHT22;69565;37.974;23.708;2023-10-19T14:10:39;25.30;47.30
80258;DHT22;69565;37.974;23.708;2023-10-19T14:13:07;25.30;47.40
80258;DHT22;69565;37.974;23.708;2023-10-19T14:15:33;25.30;47.40
80258;DHT22;69565;37.974;23.708;2023-10-19T14:18:00;25.30;47.60
80258;DHT22;69565;37.974;23.708;2023-10-19T14:20:28;25.30;47.60
80258;DHT22;69565;37.974;23.708;2023-10-19T14:22:54;25.30;47.70
80258;DHT22;69565;37.974;23.708;2023-10-19T14:25:23;25.30;47.70
80258;DHT22;69565;37.974;23.708;2023-10-19T14:27:51;25.30;47.80
80258;DHT22;69565;37.974;23.708;2023-10-19T14:30:22;25.30;47.90
80258;DHT22;69565;37.974;23.708;2023-10-19T14:32:48;25.30;47.90
80258;DHT22;69565;37.974;23.708;2023-10-19T14:35:16;25.30;48.00
80258;DHT22;69565;37.974;23.708;2023-10-19T14:37:44;25.30;48.10
80258;DHT22;69565;37.974;23.708;2023-10-19T14:40:12;25.30;48.10
80258;DHT22;69565;37.974;23.708;2023-10-19T14:42:41;25.20;48.10
80258;DHT22;69565;37.974;23.708;2023-10-19T14:45:15;25.30;48.30
80258;DHT22;69565;37.974;23.708;2023-10-19T14:47:45;25.30;49.40
80258;DHT22;69565;37.974;23.708;2023-10-19T14:50:12;25.20;48.40
80258;DHT22;69565;37.974;23.708;2023-10-19T14:52:41;25.20;48.40
80258;DHT22;69565;37.974;23.708;2023-10-19T14:55:09;25.20;48.50
80258;DHT22;69565;37.974;23.708;2023-10-19T14:57:39;25.20;48.70
80258;DHT22;69565;37.974;23.708;2023-10-19T15:00:07;25.20;48.80
80258;DHT22;69565;37.974;23.708;2023-10-19T15:02:56;25.10;49.00
80258;DHT22;69565;37.974;23.708;2023-10-19T15:05:27;25.10;49.00
80258;DHT22;69565;37.974;23.708;2023-10-19T15:07:54;25.10;49.10
80258;DHT22;69565;37.974;23.708;2023-10-19T15:10:22;25.10;49.10
80258;DHT22;69565;37.974;23.708;2023-10-19T15:12:48;25.10;49.20
80258;DHT22;69565;37.974;23.708;2023-10-19T15:15:14;25.10;49.20
80258;DHT22;69565;37.974;23.708;2023-10-19T15:17:44;25.10;49.40
80258;DHT22;69565;37.974;23.708;2023-10-19T15:20:11;25.10;49.50
80258;DHT22;69565;37.974;23.708;2023-10-19T15:22:41;25.10;49.50
80258;DHT22;69565;37.974;23.708;2023-10-19T15:25:08;25.10;49.60
80258;DHT22;69565;37.974;23.708;2023-10-19T15:27:35;25.10;49.50
80258;DHT22;69565;37.974;23.708;2023-10-19T15:30:01;25.10;49.50
80258;DHT22;69565;37.974;23.708;2023-10-19T15:32:28;25.00;49.50
80258;DHT22;69565;37.974;23.708;2023-10-19T15:34:56;25.00;49.40
80258;DHT22;69565;37.974;23.708;2023-10-19T15:37:22;25.00;49.50
80258;DHT22;69565;37.974;23.708;2023-10-19T15:39:49;25.00;49.50
80258;DHT22;69565;37.974;23.708;2023-10-19T15:42:15;25.00;49.50
80258;DHT22;69565;37.974;23.708;2023-10-19T15:44:43;25.00;49.50
80258;DHT22;69565;37.974;23.708;2023-10-19T15:47:09;25.00;49.40
80258;DHT22;69565;37.974;23.708;2023-10-19T15:49:51;25.00;49.40